sensor_id;sensor_type;location;lat;lon;timestamp;temperature;humidity
6824;DHT22;58633;49.470;11.004;2023-04-24T00:00:16;12.20;99.90
6824;DHT22;58633;49.470;11.004;2023-04-24T00:02:43;12.10;99.90
6824;DHT22;58633;49.470;11.004;2023-04-24T00:05:14;12.10;99.90
6824;DHT22;58633;49.470;11.004;2023-04-24T00:07:41;12.10;99.90
6824;DHT22;58633;49.470;11.004;2023-04-24T00:10:07;12.10;99.90
6824;DHT22;58633;49.470;11.004;2023-04-24T00:12:33;12.10;99.90
6824;DHT22;58633;49.470;11.004;2023-04-24T00:14:59;12.10;99.90
6824;DHT22;58633;49.470;11.004;2023-04-24T00:17:25;12.10;99.90
6824;DHT22;58633;49.470;11.004;2023-04-24T00:19:51;12.10;99.90
6824;DHT22;58633;49.470;11.004;2023-04-24T00:22:17;12.00;99.90
6824;DHT22;58633;49.470;11.004;2023-04-24T00:24:43;12.00;99.90
6824;DHT22;58633;49.470;11.004;2023-04-24T00:27:08;12.00;99.90
6824;DHT22;58633;49.470;11.004;2023-04-24T00:29:34;12.00;99.90
6824;DHT22;58633;49.470;11.004;2023-04-24T00:32:00;12.00;99.90
6824;DHT22;58633;49.470;11.004;2023-04-24T00:34:25;12.10;99.90
6824;DHT22;58633;49.470;11.004;2023-04-24T00:36:51;11.90;99.90
6824;DHT22;58633;49.470;11.004;2023-04-24T00:39:18;11.90;99.90
6824;DHT22;58633;49.470;11.004;2023-04-24T00:41:44;11.80;99.90
6824;DHT22;58633;49.470;11.004;2023-04-24T00:44:10;11.80;99.90
6824;DHT22;58633;49.470;11.004;2023-04-24T00:46:36;11.80;99.90
6824;DHT22;58633;49.470;11.004;2023-04-24T00:49:02;11.80;99.90
6824;DHT22;58633;49.470;11.004;2023-04-24T00:51:28;11.70;99.90
6824;DHT22;58633;49.470;11.004;2023-04-24T00:53:53;11.80;99.90
6824;DHT22;58633;49.470;11.004;2023-04-24T00:56:19;11.80;99.90
6824;DHT22;58633;49.470;11.004;2023-04-24T00:58:45;11.80;99.90
6824;DHT22;58633;49.470;11.004;2023-04-24T01:01:11;11.80;99.90
6824;DHT22;58633;49.470;11.004;2023-04-24T01:03:37;11.90;99.90
6824;DHT22;58633;49.470;11.004;2023-04-24T01:06:04;11.90;99.90
6824;DHT22;58633;49.470;11.004;2023-04-24T01:08:30;11.90;99.90
6824;DHT22;58633;49.470;11.004;2023-04-24T01:10:57;12.10;99.90
6824;DHT22;58633;49.470;11.004;2023-04-24T01:13:23;11.80;99.90
6824;DHT22;58633;49.470;11.004;2023-04-24T01:15:48;11.80;99.90
6824;DHT22;58633;49.470;11.004;2023-04-24T01:18:15;11.80;99.90
6824;DHT22;58633;49.470;11.004;2023-04-24T01:20:42;11.80;99.90
6824;DHT22;58633;49.470;11.004;2023-04-24T01:23:09;11.80;99.90
6824;DHT22;58633;49.470;11.004;2023-04-24T01:25:36;11.80;99.90
6824;DHT22;58633;49.470;11.004;2023-04-24T01:28:02;11.80;99.90
6824;DHT22;58633;49.470;11.004;2023-04-24T01:30:28;11.80;99.90
6824;DHT22;58633;49.470;11.004;2023-04-24T01:32:53;11.80;99.90
6824;DHT22;58633;49.470;11.004;2023-04-24T01:35:20;11.90;99.90
6824;DHT22;58633;49.470;11.004;2023-04-24T01:37:46;11.80;99.90
6824;DHT22;58633;49.470;11.004;2023-04-24T01:40:11;11.80;99.90
6824;DHT22;58633;49.470;11.004;2023-04-24T01:42:38;11.70;99.90
6824;DHT22;58633;49.470;11.004;2023-04-24T01:45:04;11.70;99.90
6824;DHT22;58633;49.470;11.004;2023-04-24T01:47:31;11.60;99.90
6824;DHT22;58633;49.470;11.004;2023-04-24T01:49:57;11.60;99.90
6824;DHT22;58633;49.470;11.004;2023-04-24T01:52:23;11.70;99.90
6824;DHT22;58633;49.470;11.004;2023-04-24T01:54:49;11.60;99.90
6824;DHT22;58633;49.470;11.004;2023-04-24T01:57:16;11.60;99.90
6824;DHT22;58633;49.470;11.004;2023-04-24T01:59:42;11.70;99.90
6824;DHT22;58633;49.470;11.004;2023-04-24T02:02:07;11.60;99.90
6824;DHT22;58633;49.470;11.004;2023-04-24T02:04:33;11.70;99.90
6824;DHT22;58633;49.470;11.004;2023-04-24T02:06:58;11.60;99.90
6824;DHT22;58633;49.470;11.004;2023-04-24T02:09:24;11.60;99.90
6824;DHT22;58633;49.470;11.004;2023-04-24T02:11:50;11.60;99.90
6824;DHT22;58633;49.470;11.004;2023-04-24T02:14:15;11.60;99.90
6824;DHT22;58633;49.470;11.004;2023-04-24T02:16:41;11.60;99.90
6824;DHT22;58633;49.470;11.004;2023-04-24T02:19:06;11.60;99.90
6824;DHT22;58633;49.470;11.004;2023-04-24T02:21:33;11.60;99.90
6824;DHT22;58633;49.470;11.004;2023-04-24T02:23:58;11.60;99.90
6824;DHT22;58633;49.470;11.004;2023-04-24T02:26:24;11.70;99.90
6824;DHT22;58633;49.470;11.004;2023-04-24T02:28:50;11.60;99.90
6824;DHT22;58633;49.470;11.004;2023-04-24T02:31:15;11.60;99.90
6824;DHT22;58633;49.470;11.004;2023-04-24T02:33:41;11.70;99.90
6824;DHT22;58633;49.470;11.004;2023-04-24T02:36:06;11.70;99.90
6824;DHT22;58633;49.470;11.004;2023-04-24T02:38:32;11.70;99.90
6824;DHT22;58633;49.470;11.004;2023-04-24T02:40:58;11.70;99.90
6824;DHT22;58633;49.470;11.004;2023-04-24T02:43:23;11.80;99.90
6824;DHT22;58633;49.470;11.004;2023-04-24T02:45:49;11.80;99.90
6824;DHT22;58633;49.470;11.004;2023-04-24T02:48:15;11.70;99.90
6824;DHT22;58633;49.470;11.004;2023-04-24T02:50:40;11.70;99.90
6824;DHT22;58633;49.470;11.004;2023-04-24T02:53:06;11.70;99.90
6824;DHT22;58633;49.470;11.004;2023-04-24T02:55:31;11.70;99.90
6824;DHT22;58633;49.470;11.004;2023-04-24T02:57:57;11.70;99.90
6824;DHT22;58633;49.470;11.004;2023-04-24T03:00:23;11.70;99.90
6824;DHT22;58633;49.470;11.004;2023-04-24T03:02:48;11.70;99.90
6824;DHT22;58633;49.470;11.004;2023-04-24T03:05:15;11.70;99.90
6824;DHT22;58633;49.470;11.004;2023-04-24T03:07:41;11.70;99.90
6824;DHT22;58633;49.470;11.004;2023-04-24T03:10:07;11.60;99.90
6824;DHT22;58633;49.470;11.004;2023-04-24T03:12:32;11.70;99.90
6824;DHT22;58633;49.470;11.004;2023-04-24T03:14:58;11.70;99.90
6824;DHT22;58633;49.470;11.004;2023-04-24T03:17:23;11.90;99.90
6824;DHT22;58633;49.470;11.004;2023-04-24T03:19:49;11.60;99.90
6824;DHT22;58633;49.470;11.004;2023-04-24T03:22:15;11.60;99.90
6824;DHT22;58633;49.470;11.004;2023-04-24T03:24:41;11.60;99.90
6824;DHT22;58633;49.470;11.004;2023-04-24T03:27:06;11.60;99.90
6824;DHT22;58633;49.470;11.004;2023-04-24T03:29:32;11.50;99.90
6824;DHT22;58633;49.470;11.004;2023-04-24T03:31:57;11.50;99.90
6824;DHT22;58633;49.470;11.004;2023-04-24T03:34:23;11.50;99.90
6824;DHT22;58633;49.470;11.004;2023-04-24T03:36:48;11.50;99.90
6824;DHT22;58633;49.470;11.004;2023-04-24T03:39:14;11.50;99.90
6824;DHT22;58633;49.470;11.004;2023-04-24T03:41:39;11.50;99.90
6824;DHT22;58633;49.470;11.004;2023-04-24T03:44:05;11.50;99.90
6824;DHT22;58633;49.470;11.004;2023-04-24T03:46:31;11.40;99.90
6824;DHT22;58633;49.470;11.004;2023-04-24T03:48:56;11.40;99.90
6824;DHT22;58633;49.470;11.004;2023-04-24T03:51:22;11.40;99.90
6824;DHT22;58633;49.470;11.004;2023-04-24T03:53:48;11.40;99.90
6824;DHT22;58633;49.470;11.004;2023-04-24T03:56:14;11.40;99.90
6824;DHT22;58633;49.470;11.004;2023-04-24T03:58:39;11.60;99.90
6824;DHT22;58633;49.470;11.004;2023-04-24T04:01:05;11.30;99.90
6824;DHT22;58633;49.470;11.004;2023-04-24T04:03:31;11.30;99.90
6824;DHT22;58633;49.470;11.004;2023-04-24T04:05:56;11.30;99.90
6824;DHT22;58633;49.470;11.004;2023-04-24T04:08:22;11.30;99.90
6824;DHT22;58633;49.470;11.004;2023-04-24T04:10:47;11.30;99.90
6824;DHT22;58633;49.470;11.004;2023-04-24T04:13:13;11.30;99.90
6824;DHT22;58633;49.470;11.004;2023-04-24T04:15:38;11.30;99.90
6824;DHT22;58633;49.470;11.004;2023-04-24T04:18:04;11.30;99.90
6824;DHT22;58633;49.470;11.004;2023-04-24T04:20:29;11.40;99.90
6824;DHT22;58633;49.470;11.004;2023-04-24T04:22:55;11.20;99.90
6824;DHT22;58633;49.470;11.004;2023-04-24T04:25:20;11.20;99.90
6824;DHT22;58633;49.470;11.004;2023-04-24T04:27:46;11.10;99.90
6824;DHT22;58633;49.470;11.004;2023-04-24T04:30:14;11.10;99.90
6824;DHT22;58633;49.470;11.004;2023-04-24T04:32:39;11.10;99.90
6824;DHT22;58633;49.470;11.004;2023-04-24T04:35:05;11.10;99.90
6824;DHT22;58633;49.470;11.004;2023-04-24T04:37:34;11.10;99.90
6824;DHT22;58633;49.470;11.004;2023-04-24T04:40:01;11.10;99.90
6824;DHT22;58633;49.470;11.004;2023-04-24T04:42:27;11.10;99.90
6824;DHT22;58633;49.470;11.004;2023-04-24T04:44:53;11.10;99.90
6824;DHT22;58633;49.470;11.004;2023-04-24T04:47:21;11.10;99.90
6824;DHT22;58633;49.470;11.004;2023-04-24T04:49:50;11.10;99.90
6824;DHT22;58633;49.470;11.004;2023-04-24T04:52:19;11.10;99.90
6824;DHT22;58633;49.470;11.004;2023-04-24T04:54:44;11.10;99.90
6824;DHT22;58633;49.470;11.004;2023-04-24T04:57:11;11.10;99.90
6824;DHT22;58633;49.470;11.004;2023-04-24T04:59:37;11.10;99.90
6824;DHT22;58633;49.470;11.004;2023-04-24T05:02:03;11.10;99.90
6824;DHT22;58633;49.470;11.004;2023-04-24T05:04:28;11.10;99.90
6824;DHT22;58633;49.470;11.004;2023-04-24T05:06:54;11.40;99.90
6824;DHT22;58633;49.470;11.004;2023-04-24T05:09:19;11.10;99.90
6824;DHT22;58633;49.470;11.004;2023-04-24T05:11:45;11.10;99.90
6824;DHT22;58633;49.470;11.004;2023-04-24T05:14:10;11.10;99.90
6824;DHT22;58633;49.470;11.004;2023-04-24T05:16:38;11.40;99.90
6824;DHT22;58633;49.470;11.004;2023-04-24T05:19:04;11.10;99.90
6824;DHT22;58633;49.470;11.004;2023-04-24T05:21:29;11.20;99.90
6824;DHT22;58633;49.470;11.004;2023-04-24T05:23:56;11.20;99.90
6824;DHT22;58633;49.470;11.004;2023-04-24T05:26:21;11.20;99.90
6824;DHT22;58633;49.470;11.004;2023-04-24T05:28:48;11.20;99.90
6824;DHT22;58633;49.470;11.004;2023-04-24T05:31:13;11.30;99.90
6824;DHT22;58633;49.470;11.004;2023-04-24T05:33:39;11.50;99.90
6824;DHT22;58633;49.470;11.004;2023-04-24T05:36:06;11.30;99.90
6824;DHT22;58633;49.470;11.004;2023-04-24T05:38:31;11.30;99.90
6824;DHT22;58633;49.470;11.004;2023-04-24T05:40:57;11.30;99.90
6824;DHT22;58633;49.470;11.004;2023-04-24T05:43:22;11.40;99.90
6824;DHT22;58633;49.470;11.004;2023-04-24T05:45:48;11.40;99.90
6824;DHT22;58633;49.470;11.004;2023-04-24T05:48:14;11.40;99.90
6824;DHT22;58633;49.470;11.004;2023-04-24T05:50:39;11.50;99.90
6824;DHT22;58633;49.470;11.004;2023-04-24T05:53:05;11.80;99.90
6824;DHT22;58633;49.470;11.004;2023-04-24T05:55:32;11.70;99.90
6824;DHT22;58633;49.470;11.004;2023-04-24T05:57:58;11.70;99.90
6824;DHT22;58633;49.470;11.004;2023-04-24T06:00:24;11.70;99.90
6824;DHT22;58633;49.470;11.004;2023-04-24T06:02:50;11.80;99.90
6824;DHT22;58633;49.470;11.004;2023-04-24T06:05:18;11.80;99.90
6824;DHT22;58633;49.470;11.004;2023-04-24T06:07:44;11.90;99.90
6824;DHT22;58633;49.470;11.004;2023-04-24T06:10:10;12.00;99.90
6824;DHT22;58633;49.470;11.004;2023-04-24T06:12:36;12.00;99.90
6824;DHT22;58633;49.470;11.004;2023-04-24T06:15:02;12.00;99.90
6824;DHT22;58633;49.470;11.004;2023-04-24T06:17:28;12.00;99.90
6824;DHT22;58633;49.470;11.004;2023-04-24T06:19:53;12.00;99.90
6824;DHT22;58633;49.470;11.004;2023-04-24T06:22:19;12.00;99.90
6824;DHT22;58633;49.470;11.004;2023-04-24T06:24:45;12.00;99.90
6824;DHT22;58633;49.470;11.004;2023-04-24T06:27:10;12.00;99.90
6824;DHT22;58633;49.470;11.004;2023-04-24T06:29:36;11.90;99.90
6824;DHT22;58633;49.470;11.004;2023-04-24T06:32:02;11.90;99.90
6824;DHT22;58633;49.470;11.004;2023-04-24T06:34:27;11.90;99.90
6824;DHT22;58633;49.470;11.004;2023-04-24T06:36:54;11.80;99.90
6824;DHT22;58633;49.470;11.004;2023-04-24T06:39:20;11.70;99.90
6824;DHT22;58633;49.470;11.004;2023-04-24T06:41:45;11.70;99.90
6824;DHT22;58633;49.470;11.004;2023-04-24T06:44:11;11.70;99.90
6824;DHT22;58633;49.470;11.004;2023-04-24T06:46:36;11.80;99.90
6824;DHT22;58633;49.470;11.004;2023-04-24T06:49:02;11.80;99.90
6824;DHT22;58633;49.470;11.004;2023-04-24T06:51:28;11.90;99.90
6824;DHT22;58633;49.470;11.004;2023-04-24T06:53:54;11.80;99.90
6824;DHT22;58633;49.470;11.004;2023-04-24T06:56:21;11.80;99.90
6824;DHT22;58633;49.470;11.004;2023-04-24T06:58:47;11.80;99.90
6824;DHT22;58633;49.470;11.004;2023-04-24T07:01:13;11.90;99.90
6824;DHT22;58633;49.470;11.004;2023-04-24T07:03:38;12.00;99.90
6824;DHT22;58633;49.470;11.004;2023-04-24T07:06:05;12.00;99.90
6824;DHT22;58633;49.470;11.004;2023-04-24T07:08:30;12.00;99.90
6824;DHT22;58633;49.470;11.004;2023-04-24T07:10:57;12.00;99.90
6824;DHT22;58633;49.470;11.004;2023-04-24T07:13:23;11.90;99.90
6824;DHT22;58633;49.470;11.004;2023-04-24T07:15:48;12.20;98.80
6824;DHT22;58633;49.470;11.004;2023-04-24T07:18:16;12.10;96.30
6824;DHT22;58633;49.470;11.004;2023-04-24T07:20:42;12.10;95.40
6824;DHT22;58633;49.470;11.004;2023-04-24T07:23:08;12.10;94.10
6824;DHT22;58633;49.470;11.004;2023-04-24T07:25:33;12.00;92.60
6824;DHT22;58633;49.470;11.004;2023-04-24T07:27:59;12.00;91.80
6824;DHT22;58633;49.470;11.004;2023-04-24T07:30:25;11.90;90.20
6824;DHT22;58633;49.470;11.004;2023-04-24T07:32:51;11.80;88.40
6824;DHT22;58633;49.470;11.004;2023-04-24T07:35:16;11.90;88.50
6824;DHT22;58633;49.470;11.004;2023-04-24T07:37:42;12.00;86.30
6824;DHT22;58633;49.470;11.004;2023-04-24T07:40:12;12.00;84.70
6824;DHT22;58633;49.470;11.004;2023-04-24T07:42:38;12.00;83.20
6824;DHT22;58633;49.470;11.004;2023-04-24T07:45:04;12.00;81.40
6824;DHT22;58633;49.470;11.004;2023-04-24T07:47:30;12.10;80.10
6824;DHT22;58633;49.470;11.004;2023-04-24T07:49:55;12.30;78.90
6824;DHT22;58633;49.470;11.004;2023-04-24T07:52:21;12.20;78.10
6824;DHT22;58633;49.470;11.004;2023-04-24T07:54:47;12.30;77.70
6824;DHT22;58633;49.470;11.004;2023-04-24T07:57:12;12.50;76.80
6824;DHT22;58633;49.470;11.004;2023-04-24T07:59:39;12.60;76.60
6824;DHT22;58633;49.470;11.004;2023-04-24T08:02:04;12.60;75.00
6824;DHT22;58633;49.470;11.004;2023-04-24T08:04:31;12.70;74.50
6824;DHT22;58633;49.470;11.004;2023-04-24T08:06:57;12.70;74.00
6824;DHT22;58633;49.470;11.004;2023-04-24T08:09:22;12.80;72.80
6824;DHT22;58633;49.470;11.004;2023-04-24T08:11:48;12.80;72.00
6824;DHT22;58633;49.470;11.004;2023-04-24T08:14:14;12.90;71.50
6824;DHT22;58633;49.470;11.004;2023-04-24T08:16:40;12.90;71.00
6824;DHT22;58633;49.470;11.004;2023-04-24T08:19:06;12.90;70.70
6824;DHT22;58633;49.470;11.004;2023-04-24T08:21:31;12.90;69.80
6824;DHT22;58633;49.470;11.004;2023-04-24T08:23:57;12.90;69.30
6824;DHT22;58633;49.470;11.004;2023-04-24T08:26:23;13.00;69.10
6824;DHT22;58633;49.470;11.004;2023-04-24T08:28:48;13.30;69.30
6824;DHT22;58633;49.470;11.004;2023-04-24T08:31:14;13.10;67.60
6824;DHT22;58633;49.470;11.004;2023-04-24T08:33:40;13.00;67.30
6824;DHT22;58633;49.470;11.004;2023-04-24T08:36:06;13.10;67.70
6824;DHT22;58633;49.470;11.004;2023-04-24T08:38:32;13.10;66.90
6824;DHT22;58633;49.470;11.004;2023-04-24T08:41:00;13.20;66.50
6824;DHT22;58633;49.470;11.004;2023-04-24T08:43:26;13.30;66.30
6824;DHT22;58633;49.470;11.004;2023-04-24T08:45:53;13.50;66.00
6824;DHT22;58633;49.470;11.004;2023-04-24T08:48:21;13.40;64.40
6824;DHT22;58633;49.470;11.004;2023-04-24T08:50:48;13.40;63.80
6824;DHT22;58633;49.470;11.004;2023-04-24T08:53:15;13.40;62.80
6824;DHT22;58633;49.470;11.004;2023-04-24T08:55:41;13.30;63.30
6824;DHT22;58633;49.470;11.004;2023-04-24T08:58:08;13.30;64.20
6824;DHT22;58633;49.470;11.004;2023-04-24T09:00:34;13.20;64.30
6824;DHT22;58633;49.470;11.004;2023-04-24T09:03:00;13.20;63.80
6824;DHT22;58633;49.470;11.004;2023-04-24T09:05:27;13.40;63.90
6824;DHT22;58633;49.470;11.004;2023-04-24T09:07:54;13.20;64.20
6824;DHT22;58633;49.470;11.004;2023-04-24T09:10:22;13.30;64.50
6824;DHT22;58633;49.470;11.004;2023-04-24T09:12:50;13.50;64.30
6824;DHT22;58633;49.470;11.004;2023-04-24T09:15:16;13.60;63.90
6824;DHT22;58633;49.470;11.004;2023-04-24T09:17:42;13.80;63.30
6824;DHT22;58633;49.470;11.004;2023-04-24T09:20:08;14.00;62.90
6824;DHT22;58633;49.470;11.004;2023-04-24T09:22:34;14.10;62.00
6824;DHT22;58633;49.470;11.004;2023-04-24T09:25:05;14.10;62.30
6824;DHT22;58633;49.470;11.004;2023-04-24T09:27:32;14.00;61.60
6824;DHT22;58633;49.470;11.004;2023-04-24T09:29:58;13.80;61.90
6824;DHT22;58633;49.470;11.004;2023-04-24T09:32:24;13.60;61.40
6824;DHT22;58633;49.470;11.004;2023-04-24T09:35:11;13.60;61.00
6824;DHT22;58633;49.470;11.004;2023-04-24T09:37:39;13.70;61.30
6824;DHT22;58633;49.470;11.004;2023-04-24T09:40:19;13.80;61.60
6824;DHT22;58633;49.470;11.004;2023-04-24T09:42:51;14.10;61.80
6824;DHT22;58633;49.470;11.004;2023-04-24T09:45:16;14.50;61.50
6824;DHT22;58633;49.470;11.004;2023-04-24T09:47:42;14.70;61.30
6824;DHT22;58633;49.470;11.004;2023-04-24T09:50:15;14.90;61.60
6824;DHT22;58633;49.470;11.004;2023-04-24T09:52:47;14.80;59.40
6824;DHT22;58633;49.470;11.004;2023-04-24T09:55:21;14.90;59.30
6824;DHT22;58633;49.470;11.004;2023-04-24T09:57:54;15.00;57.50
6824;DHT22;58633;49.470;11.004;2023-04-24T10:00:29;14.90;54.80
6824;DHT22;58633;49.470;11.004;2023-04-24T10:02:56;14.90;55.00
6824;DHT22;58633;49.470;11.004;2023-04-24T10:05:35;14.60;54.70
6824;DHT22;58633;49.470;11.004;2023-04-24T10:08:06;14.60;53.60
6824;DHT22;58633;49.470;11.004;2023-04-24T10:10:34;14.60;53.40
6824;DHT22;58633;49.470;11.004;2023-04-24T10:13:00;14.70;53.30
6824;DHT22;58633;49.470;11.004;2023-04-24T10:15:27;14.80;52.90
6824;DHT22;58633;49.470;11.004;2023-04-24T10:17:53;15.00;51.70
6824;DHT22;58633;49.470;11.004;2023-04-24T10:20:23;15.20;51.10
6824;DHT22;58633;49.470;11.004;2023-04-24T10:22:53;15.50;50.50
6824;DHT22;58633;49.470;11.004;2023-04-24T10:25:24;15.60;49.30
6824;DHT22;58633;49.470;11.004;2023-04-24T10:27:51;15.80;49.20
6824;DHT22;58633;49.470;11.004;2023-04-24T10:30:18;16.10;49.80
6824;DHT22;58633;49.470;11.004;2023-04-24T10:32:44;16.40;50.00
6824;DHT22;58633;49.470;11.004;2023-04-24T10:35:12;16.20;49.30
6824;DHT22;58633;49.470;11.004;2023-04-24T10:37:40;16.00;50.30
6824;DHT22;58633;49.470;11.004;2023-04-24T10:40:08;15.80;51.40
6824;DHT22;58633;49.470;11.004;2023-04-24T10:42:35;15.90;52.50
6824;DHT22;58633;49.470;11.004;2023-04-24T10:45:05;16.10;52.90
6824;DHT22;58633;49.470;11.004;2023-04-24T10:47:40;16.00;52.10
6824;DHT22;58633;49.470;11.004;2023-04-24T10:50:12;15.60;53.10
6824;DHT22;58633;49.470;11.004;2023-04-24T10:52:48;15.00;52.20
6824;DHT22;58633;49.470;11.004;2023-04-24T10:55:16;14.80;53.50
6824;DHT22;58633;49.470;11.004;2023-04-24T10:58:04;14.60;53.30
6824;DHT22;58633;49.470;11.004;2023-04-24T11:00:30;14.30;53.30
6824;DHT22;58633;49.470;11.004;2023-04-24T11:02:56;14.20;53.60
6824;DHT22;58633;49.470;11.004;2023-04-24T11:05:49;14.10;53.70
6824;DHT22;58633;49.470;11.004;2023-04-24T11:08:16;14.20;54.00
6824;DHT22;58633;49.470;11.004;2023-04-24T11:10:50;14.20;53.60
6824;DHT22;58633;49.470;11.004;2023-04-24T11:13:22;14.30;52.90
6824;DHT22;58633;49.470;11.004;2023-04-24T11:18:39;14.40;50.10
6824;DHT22;58633;49.470;11.004;2023-04-24T11:21:12;14.50;50.00
6824;DHT22;58633;49.470;11.004;2023-04-24T11:23:38;14.60;49.40
6824;DHT22;58633;49.470;11.004;2023-04-24T11:26:29;14.80;49.60
6824;DHT22;58633;49.470;11.004;2023-04-24T11:29:06;15.10;50.00
6824;DHT22;58633;49.470;11.004;2023-04-24T11:31:37;15.50;50.10
6824;DHT22;58633;49.470;11.004;2023-04-24T11:34:11;16.00;49.90
6824;DHT22;58633;49.470;11.004;2023-04-24T11:36:37;15.90;49.50
6824;DHT22;58633;49.470;11.004;2023-04-24T11:39:03;15.90;50.30
6824;DHT22;58633;49.470;11.004;2023-04-24T11:41:29;15.80;50.30
6824;DHT22;58633;49.470;11.004;2023-04-24T11:43:56;16.00;50.80
6824;DHT22;58633;49.470;11.004;2023-04-24T11:46:22;15.90;50.20
6824;DHT22;58633;49.470;11.004;2023-04-24T11:48:47;15.70;50.70
6824;DHT22;58633;49.470;11.004;2023-04-24T11:51:14;15.40;50.60
6824;DHT22;58633;49.470;11.004;2023-04-24T11:53:39;15.30;50.60
6824;DHT22;58633;49.470;11.004;2023-04-24T11:56:05;15.40;51.20
6824;DHT22;58633;49.470;11.004;2023-04-24T11:58:40;15.50;50.90
6824;DHT22;58633;49.470;11.004;2023-04-24T12:01:06;15.60;50.80
6824;DHT22;58633;49.470;11.004;2023-04-24T12:03:31;15.40;48.90
6824;DHT22;58633;49.470;11.004;2023-04-24T12:06:07;15.30;48.90
6824;DHT22;58633;49.470;11.004;2023-04-24T12:08:33;15.40;49.40
6824;DHT22;58633;49.470;11.004;2023-04-24T12:11:03;15.50;48.90
6824;DHT22;58633;49.470;11.004;2023-04-24T12:13:29;15.70;49.10
6824;DHT22;58633;49.470;11.004;2023-04-24T12:15:57;15.80;48.80
6824;DHT22;58633;49.470;11.004;2023-04-24T12:18:23;15.90;48.70
6824;DHT22;58633;49.470;11.004;2023-04-24T12:20:49;15.90;48.90
6824;DHT22;58633;49.470;11.004;2023-04-24T12:23:14;15.90;48.60
6824;DHT22;58633;49.470;11.004;2023-04-24T12:25:40;15.80;49.30
6824;DHT22;58633;49.470;11.004;2023-04-24T12:30:40;15.40;48.30
6824;DHT22;58633;49.470;11.004;2023-04-24T12:33:06;15.60;48.40
6824;DHT22;58633;49.470;11.004;2023-04-24T12:35:33;15.80;48.40
6824;DHT22;58633;49.470;11.004;2023-04-24T12:38:09;16.20;48.40
6824;DHT22;58633;49.470;11.004;2023-04-24T12:40:35;16.20;48.60
6824;DHT22;58633;49.470;11.004;2023-04-24T12:43:01;16.20;48.80
6824;DHT22;58633;49.470;11.004;2023-04-24T12:45:26;16.30;49.20
6824;DHT22;58633;49.470;11.004;2023-04-24T12:47:53;16.50;48.50
6824;DHT22;58633;49.470;11.004;2023-04-24T12:50:19;15.90;48.30
6824;DHT22;58633;49.470;11.004;2023-04-24T12:52:44;15.60;48.30
6824;DHT22;58633;49.470;11.004;2023-04-24T12:55:10;15.60;49.00
6824;DHT22;58633;49.470;11.004;2023-04-24T12:57:38;15.80;48.90
6824;DHT22;58633;49.470;11.004;2023-04-24T13:00:06;15.90;48.50
6824;DHT22;58633;49.470;11.004;2023-04-24T13:02:33;16.20;48.40
6824;DHT22;58633;49.470;11.004;2023-04-24T13:04:59;16.40;48.20
6824;DHT22;58633;49.470;11.004;2023-04-24T13:07:25;16.60;47.60
6824;DHT22;58633;49.470;11.004;2023-04-24T13:09:52;16.90;47.90
6824;DHT22;58633;49.470;11.004;2023-04-24T13:12:18;16.60;46.60
6824;DHT22;58633;49.470;11.004;2023-04-24T13:14:45;16.20;47.40
6824;DHT22;58633;49.470;11.004;2023-04-24T13:17:11;15.70;47.80
6824;DHT22;58633;49.470;11.004;2023-04-24T13:19:41;15.30;48.40
6824;DHT22;58633;49.470;11.004;2023-04-24T13:22:08;15.10;49.00
6824;DHT22;58633;49.470;11.004;2023-04-24T13:24:35;15.00;49.30
6824;DHT22;58633;49.470;11.004;2023-04-24T13:27:00;14.80;49.50
6824;DHT22;58633;49.470;11.004;2023-04-24T13:29:26;14.80;49.80
6824;DHT22;58633;49.470;11.004;2023-04-24T13:31:53;14.80;49.90
6824;DHT22;58633;49.470;11.004;2023-04-24T13:34:23;14.60;49.40
6824;DHT22;58633;49.470;11.004;2023-04-24T13:36:53;14.70;49.60
6824;DHT22;58633;49.470;11.004;2023-04-24T13:39:19;14.90;49.70
6824;DHT22;58633;49.470;11.004;2023-04-24T13:41:44;14.90;49.40
6824;DHT22;58633;49.470;11.004;2023-04-24T13:44:12;14.60;49.70
6824;DHT22;58633;49.470;11.004;2023-04-24T13:46:37;14.30;49.60
6824;DHT22;58633;49.470;11.004;2023-04-24T13:49:03;13.90;49.70
6824;DHT22;58633;49.470;11.004;2023-04-24T13:51:29;13.70;50.50
6824;DHT22;58633;49.470;11.004;2023-04-24T13:53:55;13.70;50.90
6824;DHT22;58633;49.470;11.004;2023-04-24T13:56:21;13.80;51.40
6824;DHT22;58633;49.470;11.004;2023-04-24T13:58:47;13.90;51.50
6824;DHT22;58633;49.470;11.004;2023-04-24T14:01:14;13.90;51.30
6824;DHT22;58633;49.470;11.004;2023-04-24T14:03:41;14.10;51.20
6824;DHT22;58633;49.470;11.004;2023-04-24T14:06:06;14.70;51.10
6824;DHT22;58633;49.470;11.004;2023-04-24T14:08:32;15.70;50.80
6824;DHT22;58633;49.470;11.004;2023-04-24T14:10:58;17.30;49.30
6824;DHT22;58633;49.470;11.004;2023-04-24T14:13:24;18.50;47.70
6824;DHT22;58633;49.470;11.004;2023-04-24T14:15:50;19.00;46.10
6824;DHT22;58633;49.470;11.004;2023-04-24T14:18:16;17.90;45.60
6824;DHT22;58633;49.470;11.004;2023-04-24T14:20:41;17.20;46.70
6824;DHT22;58633;49.470;11.004;2023-04-24T14:23:07;17.10;47.60
6824;DHT22;58633;49.470;11.004;2023-04-24T14:25:32;17.00;48.00
6824;DHT22;58633;49.470;11.004;2023-04-24T14:27:58;17.10;47.90
6824;DHT22;58633;49.470;11.004;2023-04-24T14:30:23;18.00;47.50
6824;DHT22;58633;49.470;11.004;2023-04-24T14:32:49;18.70;46.60
6824;DHT22;58633;49.470;11.004;2023-04-24T14:35:15;17.60;46.00
6824;DHT22;58633;49.470;11.004;2023-04-24T14:37:40;16.60;46.60
6824;DHT22;58633;49.470;11.004;2023-04-24T14:40:07;16.10;47.70
6824;DHT22;58633;49.470;11.004;2023-04-24T14:42:33;16.00;48.30
6824;DHT22;58633;49.470;11.004;2023-04-24T14:44:59;16.90;48.20
6824;DHT22;58633;49.470;11.004;2023-04-24T14:47:25;18.50;46.00
6824;DHT22;58633;49.470;11.004;2023-04-24T14:49:50;17.90;45.40
6824;DHT22;58633;49.470;11.004;2023-04-24T14:52:16;17.20;45.80
6824;DHT22;58633;49.470;11.004;2023-04-24T14:54:42;18.80;47.70
6824;DHT22;58633;49.470;11.004;2023-04-24T14:57:08;21.90;45.60
6824;DHT22;58633;49.470;11.004;2023-04-24T14:59:34;24.10;42.60
6824;DHT22;58633;49.470;11.004;2023-04-24T15:01:59;25.70;40.30
6824;DHT22;58633;49.470;11.004;2023-04-24T15:04:25;25.50;37.90
6824;DHT22;58633;49.470;11.004;2023-04-24T15:06:51;23.80;38.20
6824;DHT22;58633;49.470;11.004;2023-04-24T15:09:19;22.70;39.10
6824;DHT22;58633;49.470;11.004;2023-04-24T15:11:44;21.10;39.10
6824;DHT22;58633;49.470;11.004;2023-04-24T15:14:10;21.10;41.60
6824;DHT22;58633;49.470;11.004;2023-04-24T15:16:36;23.40;40.70
6824;DHT22;58633;49.470;11.004;2023-04-24T15:19:01;24.30;38.20
6824;DHT22;58633;49.470;11.004;2023-04-24T15:21:27;22.50;37.90
6824;DHT22;58633;49.470;11.004;2023-04-24T15:23:52;20.80;40.40
6824;DHT22;58633;49.470;11.004;2023-04-24T15:26:18;19.40;41.70
6824;DHT22;58633;49.470;11.004;2023-04-24T15:28:44;18.70;43.00
6824;DHT22;58633;49.470;11.004;2023-04-24T15:31:12;18.40;44.00